createdAt,value
2018-05-26T00:00:22.171Z,52.72
2018-05-26T00:01:21.997Z,52.71
2018-05-26T00:02:22.159Z,52.82
2018-05-26T00:03:22.231Z,52.69
2018-05-26T00:04:22.291Z,52.71
2018-05-26T00:05:21.991Z,52.74
2018-05-26T00:06:22.031Z,52.74
2018-05-26T00:07:22.114Z,52.69
2018-05-26T00:08:21.975Z,52.73
2018-05-26T00:09:22.033Z,52.72
2018-05-26T00:10:22.102Z,52.7
2018-05-26T00:11:22.246Z,52.67
2018-05-26T00:12:22.060Z,52.68
2018-05-26T00:13:21.917Z,52.66
2018-05-26T00:14:22.190Z,52.68
2018-05-26T00:15:22.182Z,52.66
2018-05-26T00:16:22.151Z,52.66
2018-05-26T00:17:22.096Z,52.66
2018-05-26T00:18:22.197Z,52.73
2018-05-26T00:19:22.056Z,52.68
2018-05-26T00:20:21.973Z,52.7
2018-05-26T00:21:22.102Z,52.73
2018-05-26T00:22:21.918Z,52.67
2018-05-26T00:23:22.166Z,52.77
2018-05-26T00:24:22.260Z,52.69
2018-05-26T00:25:22.111Z,52.7
2018-05-26T00:26:21.964Z,52.8
2018-05-26T00:27:22.082Z,52.71
2018-05-26T00:28:22.172Z,52.66
2018-05-26T00:29:22.334Z,52.67
2018-05-26T00:30:22.047Z,52.71
2018-05-26T00:31:21.909Z,52.64
2018-05-26T00:32:22.068Z,52.74
2018-05-26T00:33:22.146Z,52.75
2018-05-26T00:34:22.253Z,52.69
2018-05-26T00:35:22.158Z,52.64
2018-05-26T00:36:21.927Z,52.67
2018-05-26T00:37:22.137Z,52.71
2018-05-26T00:38:22.169Z,52.69
2018-05-26T00:39:22.196Z,52.7
2018-05-26T00:40:22.242Z,52.68
2018-05-26T00:41:22.214Z,52.71
2018-05-26T00:42:22.098Z,52.7
2018-05-26T00:43:22.096Z,52.74
2018-05-26T00:44:22.255Z,52.73
2018-05-26T00:45:22.058Z,52.72
2018-05-26T00:46:22.069Z,52.66
2018-05-26T00:47:22.172Z,52.67
2018-05-26T00:48:22.184Z,52.64
2018-05-26T00:49:21.882Z,52.66
2018-05-26T00:50:22.149Z,52.67
2018-05-26T00:51:22.368Z,52.7
2018-05-26T00:52:22.064Z,52.66
2018-05-26T00:53:21.986Z,52.61
2018-05-26T00:54:22.165Z,52.66
2018-05-26T00:55:22.156Z,52.63
2018-05-26T00:56:22.005Z,52.73
2018-05-26T00:57:22.377Z,52.67
2018-05-26T00:58:22.013Z,52.68
2018-05-26T00:59:22.136Z,52.64
2018-05-26T01:00:22.077Z,52.66
2018-05-26T01:01:21.990Z,52.65
2018-05-26T01:02:22.164Z,52.63
2018-05-26T01:03:22.137Z,52.6
2018-05-26T01:04:22.066Z,52.62
2018-05-26T01:05:22.092Z,52.66
2018-05-26T01:06:22.109Z,52.64
2018-05-26T01:07:21.998Z,52.7
2018-05-26T01:08:22.060Z,52.67
2018-05-26T01:09:22.117Z,52.66
2018-05-26T01:10:22.155Z,52.66
2018-05-26T01:11:22.024Z,52.64
2018-05-26T01:12:22.038Z,52.63
2018-05-26T01:13:22.145Z,52.63
2018-05-26T01:14:22.080Z,52.65
2018-05-26T01:15:22.005Z,52.66
2018-05-26T01:16:21.953Z,52.65
2018-05-26T01:17:22.116Z,52.62
2018-05-26T01:18:22.177Z,52.69
2018-05-26T01:19:22.077Z,52.64
2018-05-26T01:20:22.163Z,52.68
2018-05-26T01:21:22.170Z,52.62
2018-05-26T01:22:22.154Z,52.64
2018-05-26T01:23:21.998Z,52.66
2018-05-26T01:24:22.067Z,52.68
2018-05-26T01:25:22.219Z,52.63
2018-05-26T01:26:22.116Z,52.66
2018-05-26T01:27:22.041Z,52.67
2018-05-26T01:28:21.975Z,52.68
2018-05-26T01:29:22.048Z,52.69
2018-05-26T01:30:21.994Z,52.58
2018-05-26T01:31:22.054Z,52.63
2018-05-26T01:32:22.205Z,52.69
2018-05-26T01:33:22.073Z,52.67
2018-05-26T01:34:22.003Z,52.66
2018-05-26T01:35:22.185Z,52.63
2018-05-26T01:36:22.083Z,52.64
2018-05-26T01:37:22.039Z,52.62
2018-05-26T01:38:22.047Z,52.66
2018-05-26T01:39:21.949Z,52.67
2018-05-26T01:40:22.033Z,52.66
2018-05-26T01:41:22.034Z,52.65
2018-05-26T01:42:22.162Z,52.65
2018-05-26T01:43:22.071Z,52.6
2018-05-26T01:44:21.974Z,52.63
2018-05-26T01:45:22.145Z,52.64
2018-05-26T01:46:21.939Z,52.63
2018-05-26T01:47:22.111Z,52.64
2018-05-26T01:48:21.985Z,52.65
2018-05-26T01:49:22.067Z,52.61
2018-05-26T01:50:22.374Z,52.64
2018-05-26T01:51:22.139Z,52.67
2018-05-26T01:52:21.978Z,52.64
2018-05-26T01:53:22.124Z,52.62
2018-05-26T01:54:22.015Z,52.69
2018-05-26T01:55:22.003Z,52.64
2018-05-26T01:56:22.194Z,52.69
2018-05-26T01:57:21.857Z,52.62
2018-05-26T01:58:21.917Z,52.65
2018-05-26T01:59:22.148Z,52.67
2018-05-26T02:00:22.133Z,52.58
2018-05-26T02:01:22.260Z,52.61
2018-05-26T02:02:22.317Z,52.63
2018-05-26T02:03:21.977Z,52.64
2018-05-26T02:04:22.009Z,52.6
2018-05-26T02:05:22.067Z,52.67
2018-05-26T02:06:22.095Z,52.63
2018-05-26T02:07:22.067Z,52.68
2018-05-26T02:08:22.004Z,52.63
2018-05-26T02:09:22.054Z,52.63
2018-05-26T02:10:22.196Z,52.71
2018-05-26T02:11:22.139Z,52.61
2018-05-26T02:12:22.156Z,52.61
2018-05-26T02:13:21.960Z,52.58
2018-05-26T02:14:22.126Z,52.68
2018-05-26T02:15:22.242Z,52.64
2018-05-26T02:16:21.990Z,52.64
2018-05-26T02:17:22.095Z,52.65
2018-05-26T02:18:22.105Z,52.64
2018-05-26T02:19:22.066Z,52.6
2018-05-26T02:20:22.105Z,52.59
2018-05-26T02:21:22.117Z,52.58
2018-05-26T02:22:21.995Z,52.6
2018-05-26T02:23:22.021Z,52.63
2018-05-26T02:24:22.022Z,52.61
2018-05-26T02:25:22.125Z,52.62
2018-05-26T02:26:22.083Z,52.65
2018-05-26T02:27:21.962Z,52.62
2018-05-26T02:28:22.042Z,52.63
2018-05-26T02:29:22.060Z,52.59
2018-05-26T02:30:22.132Z,52.66
2018-05-26T02:31:43.965Z,52.63
2018-05-26T02:32:21.994Z,52.66
2018-05-26T02:33:22.085Z,52.64
2018-05-26T02:34:21.954Z,52.64
2018-05-26T02:35:22.203Z,52.64
2018-05-26T02:36:31.955Z,52.61
2018-05-26T02:37:21.995Z,52.54
2018-05-26T02:38:22.003Z,52.65
2018-05-26T02:39:22.291Z,52.6
2018-05-26T02:40:22.110Z,52.61
2018-05-26T02:41:22.034Z,52.64
2018-05-26T02:42:22.164Z,52.61
2018-05-26T02:43:22.202Z,52.59
2018-05-26T02:44:22.004Z,52.61
2018-05-26T02:45:22.119Z,52.63
2018-05-26T02:46:22.131Z,52.56
2018-05-26T02:47:22.169Z,52.62
2018-05-26T02:48:21.874Z,52.58
2018-05-26T02:49:22.051Z,52.62
2018-05-26T02:50:22.034Z,52.56
2018-05-26T02:51:22.230Z,52.61
2018-05-26T02:52:21.944Z,52.67
2018-05-26T02:53:22.159Z,52.62
2018-05-26T02:54:22.076Z,52.62
2018-05-26T02:55:22.105Z,52.61
2018-05-26T02:56:22.068Z,52.61
2018-05-26T02:57:21.919Z,52.62
2018-05-26T02:58:22.013Z,52.6
2018-05-26T02:59:22.216Z,52.66
2018-05-26T03:00:22.095Z,52.63
2018-05-26T03:01:22.085Z,52.59
2018-05-26T03:02:22.170Z,52.64
2018-05-26T03:03:22.081Z,52.57
2018-05-26T03:04:21.965Z,52.6
2018-05-26T03:05:22.179Z,52.62
2018-05-26T03:06:22.213Z,52.6
2018-05-26T03:07:22.128Z,52.62
2018-05-26T03:08:21.919Z,52.61
2018-05-26T03:09:22.088Z,52.61
2018-05-26T03:10:21.987Z,52.56
2018-05-26T03:11:21.997Z,52.62
2018-05-26T03:12:22.201Z,52.54
2018-05-26T03:13:21.881Z,52.65
2018-05-26T03:14:21.986Z,52.6
2018-05-26T03:15:22.202Z,52.63
2018-05-26T03:16:22.093Z,52.52
2018-05-26T03:17:22.095Z,52.64
2018-05-26T03:18:21.976Z,52.55
2018-05-26T03:19:22.352Z,52.6
2018-05-26T03:20:21.969Z,52.6
2018-05-26T03:21:22.215Z,52.6
2018-05-26T03:22:22.041Z,52.6
2018-05-26T03:23:21.997Z,52.6
2018-05-26T03:24:21.955Z,52.6
2018-05-26T03:25:21.942Z,52.6
2018-05-26T03:26:22.021Z,52.6
2018-05-26T03:27:22.047Z,52.61
2018-05-26T03:28:22.149Z,52.6
2018-05-26T03:29:22.002Z,52.57
2018-05-26T03:30:22.206Z,52.6
2018-05-26T03:31:22.048Z,52.59
2018-05-26T03:32:21.935Z,52.57
2018-05-26T03:33:21.979Z,52.59
2018-05-26T03:34:22.249Z,52.6
2018-05-26T03:35:22.182Z,52.6
2018-05-26T03:36:22.103Z,52.61
2018-05-26T03:37:21.910Z,52.59
2018-05-26T03:38:22.100Z,52.59
2018-05-26T03:39:22.101Z,52.58
2018-05-26T03:40:21.938Z,52.63
2018-05-26T03:41:22.154Z,52.57
2018-05-26T03:42:21.996Z,52.6
2018-05-26T03:43:22.286Z,52.6
2018-05-26T03:44:21.936Z,52.6
2018-05-26T03:45:22.060Z,52.57
2018-05-26T03:46:21.969Z,52.57
2018-05-26T03:47:21.856Z,52.57
2018-05-26T03:48:22.116Z,52.56
2018-05-26T03:49:22.063Z,52.59
2018-05-26T03:50:22.066Z,52.6
2018-05-26T03:51:22.145Z,52.6
2018-05-26T03:52:22.160Z,52.6
2018-05-26T03:53:21.979Z,52.63
2018-05-26T03:54:21.976Z,52.58
2018-05-26T03:55:21.931Z,52.62
2018-05-26T03:56:21.953Z,52.59
2018-05-26T03:57:22.109Z,52.59
2018-05-26T03:58:22.085Z,52.58
2018-05-26T03:59:21.963Z,52.57
2018-05-26T04:00:22.063Z,52.63
2018-05-26T04:01:22.139Z,52.51
2018-05-26T04:02:21.971Z,52.6
2018-05-26T04:03:21.994Z,52.6
2018-05-26T04:04:21.885Z,52.59
2018-05-26T04:05:22.022Z,52.59
2018-05-26T04:06:22.143Z,52.59
2018-05-26T04:07:22.060Z,52.58
2018-05-26T04:08:22.132Z,52.62
2018-05-26T04:09:22.078Z,52.55
2018-05-26T04:10:22.109Z,52.54
2018-05-26T04:11:22.019Z,52.61
2018-05-26T04:12:22.111Z,52.59
2018-05-26T04:13:21.917Z,52.58
2018-05-26T04:14:21.979Z,52.61
2018-05-26T04:15:21.985Z,52.61
2018-05-26T04:16:22.181Z,52.59
2018-05-26T04:17:22.009Z,52.6
2018-05-26T04:18:22.072Z,52.64
2018-05-26T04:19:22.228Z,52.58
2018-05-26T04:20:22.097Z,52.62
2018-05-26T04:21:22.105Z,52.64
2018-05-26T04:22:22.037Z,52.58
2018-05-26T04:23:22.100Z,52.64
2018-05-26T04:24:21.985Z,52.61
2018-05-26T04:25:22.282Z,52.57
2018-05-26T04:26:22.036Z,52.57
2018-05-26T04:27:22.176Z,52.6
2018-05-26T04:28:22.105Z,52.59
2018-05-26T04:29:22.119Z,52.59
2018-05-26T04:30:22.125Z,52.57
2018-05-26T04:31:21.909Z,52.56
2018-05-26T04:32:22.044Z,52.59
2018-05-26T04:33:22.109Z,52.54
2018-05-26T04:34:22.003Z,52.59
2018-05-26T04:35:22.035Z,52.58
2018-05-26T04:36:22.044Z,52.59
2018-05-26T04:37:22.050Z,52.65
2018-05-26T04:38:22.116Z,52.52
2018-05-26T04:39:22.032Z,52.6
2018-05-26T04:40:31.970Z,52.57
2018-05-26T04:41:22.035Z,52.57
2018-05-26T04:42:21.830Z,52.58
2018-05-26T04:43:21.991Z,52.63
2018-05-26T04:44:22.042Z,52.63
2018-05-26T04:45:22.092Z,52.55
2018-05-26T04:46:21.921Z,52.61
2018-05-26T04:47:22.004Z,52.56
2018-05-26T04:48:22.179Z,52.64
2018-05-26T04:49:22.121Z,52.54
2018-05-26T04:50:22.044Z,52.6
2018-05-26T04:51:21.992Z,52.58
2018-05-26T04:52:21.877Z,52.53
2018-05-26T04:53:22.056Z,52.59
2018-05-26T04:54:22.048Z,52.6
2018-05-26T04:55:22.085Z,52.53
2018-05-26T04:56:21.939Z,52.61
2018-05-26T04:57:22.048Z,52.51
2018-05-26T04:58:22.018Z,52.56
2018-05-26T04:59:22.066Z,52.61
2018-05-26T05:00:22.066Z,52.54
2018-05-26T05:01:22.047Z,52.51
2018-05-26T05:02:22.091Z,52.58
2018-05-26T05:03:21.902Z,52.53
2018-05-26T05:04:21.954Z,52.51
2018-05-26T05:05:22.123Z,52.54
2018-05-26T05:06:21.971Z,52.52
2018-05-26T05:07:22.137Z,52.46
2018-05-26T05:08:22.137Z,52.56
2018-05-26T05:09:22.005Z,52.53
2018-05-26T05:10:21.954Z,52.51
2018-05-26T05:11:22.043Z,52.52
2018-05-26T05:12:21.858Z,52.54
2018-05-26T05:13:22.027Z,52.56
2018-05-26T05:14:21.949Z,52.53
2018-05-26T05:15:22.176Z,52.5
2018-05-26T05:16:21.873Z,52.51
2018-05-26T05:17:22.021Z,52.51
2018-05-26T05:18:22.104Z,52.5
2018-05-26T05:19:22.094Z,52.49
2018-05-26T05:20:21.905Z,52.51
2018-05-26T05:21:21.930Z,52.53
2018-05-26T05:22:22.005Z,52.54
2018-05-26T05:23:22.034Z,52.51
2018-05-26T05:24:21.995Z,52.51
2018-05-26T05:25:21.978Z,52.51
2018-05-26T05:26:22.035Z,52.54
2018-05-26T05:27:22.012Z,52.5
2018-05-26T05:28:22.142Z,52.46
2018-05-26T05:29:22.036Z,52.49
2018-05-26T05:30:21.877Z,52.52
2018-05-26T05:31:22.077Z,52.52
2018-05-26T05:32:21.917Z,52.52
2018-05-26T05:33:22.002Z,52.51
2018-05-26T05:34:22.055Z,52.54
2018-05-26T05:35:22.044Z,52.52
2018-05-26T05:36:21.968Z,52.44
2018-05-26T05:37:22.134Z,52.52
2018-05-26T05:38:22.270Z,52.51
2018-05-26T05:39:21.760Z,52.48
2018-05-26T05:40:22.057Z,52.48
2018-05-26T05:41:22.037Z,52.54
2018-05-26T05:42:22.071Z,52.49
2018-05-26T05:43:21.911Z,52.5
2018-05-26T05:44:22.156Z,52.54
2018-05-26T05:45:22.459Z,52.5
2018-05-26T05:46:22.085Z,52.53
2018-05-26T05:47:21.940Z,52.51
2018-05-26T05:48:21.972Z,52.51
2018-05-26T05:49:22.016Z,52.53
2018-05-26T05:50:22.062Z,52.58
2018-05-26T05:51:21.862Z,52.48
2018-05-26T05:52:21.988Z,52.53
2018-05-26T05:53:22.120Z,52.56
2018-05-26T05:54:22.064Z,52.58
2018-05-26T05:55:22.088Z,52.52
2018-05-26T05:56:21.990Z,52.61
2018-05-26T05:57:21.817Z,52.56
2018-05-26T05:58:21.827Z,52.57
2018-05-26T05:59:22.071Z,52.64
2018-05-26T06:00:22.098Z,52.59
2018-05-26T06:01:22.073Z,52.6
2018-05-26T06:02:21.901Z,52.59
2018-05-26T06:03:22.087Z,52.57
2018-05-26T06:04:21.904Z,52.55
2018-05-26T06:05:22.039Z,52.56
2018-05-26T06:06:22.061Z,52.61
2018-05-26T06:07:21.908Z,52.55
2018-05-26T06:08:22.025Z,52.52
2018-05-26T06:09:22.270Z,52.63
2018-05-26T06:10:21.920Z,52.62
2018-05-26T06:11:22.013Z,52.56
2018-05-26T06:12:22.287Z,52.58
2018-05-26T06:13:21.939Z,52.56
2018-05-26T06:14:21.940Z,52.61
2018-05-26T06:15:21.971Z,52.57
2018-05-26T06:16:22.048Z,52.52
2018-05-26T06:17:22.158Z,52.6
2018-05-26T06:18:21.938Z,52.65
2018-05-26T06:19:22.027Z,52.57
2018-05-26T06:20:22.002Z,52.58
2018-05-26T06:21:21.938Z,52.52
2018-05-26T06:22:21.968Z,52.59
2018-05-26T06:23:22.453Z,52.6
2018-05-26T06:24:21.827Z,52.61
2018-05-26T06:25:21.849Z,52.58
2018-05-26T06:26:22.046Z,52.6
2018-05-26T06:27:21.942Z,52.67
2018-05-26T06:28:22.080Z,52.62
2018-05-26T06:29:22.078Z,52.68
2018-05-26T06:30:22.077Z,52.6
2018-05-26T06:31:21.874Z,52.59
2018-05-26T06:32:21.979Z,52.6
2018-05-26T06:33:21.781Z,52.59
2018-05-26T06:34:22.031Z,52.64
2018-05-26T06:35:21.917Z,52.61
2018-05-26T06:36:22.036Z,52.57
2018-05-26T06:37:22.107Z,52.59
2018-05-26T06:38:22.349Z,52.63
2018-05-26T06:39:21.940Z,52.63
2018-05-26T06:40:21.959Z,52.61
2018-05-26T06:41:22.091Z,52.56
2018-05-26T06:42:21.873Z,52.61
2018-05-26T06:43:21.959Z,52.6
2018-05-26T06:44:22.043Z,52.63
2018-05-26T06:45:23.974Z,52.52
2018-05-26T06:46:21.979Z,52.57
2018-05-26T06:47:22.205Z,52.67
2018-05-26T06:48:22.226Z,52.55
2018-05-26T06:49:22.037Z,52.61
2018-05-26T06:50:21.996Z,52.6
2018-05-26T06:51:22.063Z,52.63
2018-05-26T06:52:22.729Z,52.65
2018-05-26T06:53:21.875Z,52.63
2018-05-26T06:54:21.961Z,52.59
2018-05-26T06:55:21.851Z,52.58
2018-05-26T06:56:22.061Z,52.57
2018-05-26T06:57:21.947Z,52.6
2018-05-26T06:58:22.009Z,52.6
2018-05-26T06:59:22.257Z,52.64
2018-05-26T07:00:21.950Z,52.61
2018-05-26T07:01:21.860Z,52.64
2018-05-26T07:02:21.889Z,52.56
2018-05-26T07:03:21.882Z,52.6
2018-05-26T07:04:21.857Z,52.62
2018-05-26T07:05:21.970Z,52.61
2018-05-26T07:06:22.096Z,52.59
2018-05-26T07:07:21.910Z,52.67
2018-05-26T07:08:22.159Z,52.63
2018-05-26T07:09:21.850Z,52.55
2018-05-26T07:10:21.764Z,52.62
2018-05-26T07:11:22.023Z,52.6
2018-05-26T07:12:21.966Z,52.6
2018-05-26T07:13:21.852Z,52.61
2018-05-26T07:14:21.854Z,52.6
2018-05-26T07:15:21.971Z,52.6
2018-05-26T07:16:21.956Z,52.61
2018-05-26T07:17:21.940Z,52.58
2018-05-26T07:18:22.054Z,52.59
2018-05-26T07:19:22.187Z,52.58
2018-05-26T07:20:21.965Z,52.66
2018-05-26T07:21:21.976Z,52.6
2018-05-26T07:22:22.134Z,52.58
2018-05-26T07:23:22.047Z,52.54
2018-05-26T07:24:22.165Z,52.59
2018-05-26T07:25:21.929Z,52.52
2018-05-26T07:26:21.942Z,52.58
2018-05-26T07:27:21.886Z,52.57
2018-05-26T07:28:21.983Z,52.54
2018-05-26T07:29:22.074Z,52.53
2018-05-26T07:30:22.215Z,52.59
2018-05-26T07:31:22.046Z,52.52
2018-05-26T07:32:22.050Z,52.63
2018-05-26T07:33:22.000Z,52.61
2018-05-26T07:34:22.225Z,52.6
2018-05-26T07:35:22.174Z,52.6
2018-05-26T07:36:21.875Z,52.58
2018-05-26T07:37:22.084Z,52.61
2018-05-26T07:38:22.257Z,52.52
2018-05-26T07:39:21.864Z,52.55
2018-05-26T07:40:22.260Z,52.52
2018-05-26T07:41:21.873Z,52.58
2018-05-26T07:42:22.069Z,52.57
2018-05-26T07:43:21.944Z,52.53
2018-05-26T07:44:22.041Z,52.56
2018-05-26T07:45:22.150Z,52.56
2018-05-26T07:46:22.148Z,52.52
2018-05-26T07:47:22.101Z,52.52
2018-05-26T07:48:22.092Z,52.63
2018-05-26T07:49:21.905Z,52.56
2018-05-26T07:50:21.879Z,52.49
2018-05-26T07:51:21.911Z,52.58
2018-05-26T07:52:21.975Z,52.55
2018-05-26T07:53:22.062Z,52.54
2018-05-26T07:54:21.860Z,52.58
2018-05-26T07:55:22.202Z,52.53
2018-05-26T07:56:21.950Z,52.54
2018-05-26T07:57:21.943Z,52.55
2018-05-26T07:58:22.146Z,52.52
2018-05-26T07:59:22.059Z,52.6
2018-05-26T08:00:22.120Z,52.55
2018-05-26T08:01:22.063Z,52.52
2018-05-26T08:02:21.847Z,52.6
2018-05-26T08:03:21.838Z,52.58
2018-05-26T08:04:22.012Z,52.61
2018-05-26T08:05:22.091Z,52.62
2018-05-26T08:06:22.149Z,52.54
2018-05-26T08:07:21.959Z,52.5
2018-05-26T08:08:21.835Z,52.6
2018-05-26T08:09:21.863Z,52.53
2018-05-26T08:10:21.946Z,52.58
2018-05-26T08:11:21.839Z,52.56
2018-05-26T08:12:21.844Z,52.56
2018-05-26T08:13:22.017Z,52.55
2018-05-26T08:14:21.916Z,52.57
2018-05-26T08:15:22.052Z,52.55
2018-05-26T08:16:21.837Z,52.55
2018-05-26T08:17:22.267Z,52.51
2018-05-26T08:18:21.906Z,52.61
2018-05-26T08:19:22.031Z,52.53
2018-05-26T08:20:21.941Z,52.58
2018-05-26T08:21:21.914Z,52.52
2018-05-26T08:22:21.912Z,52.49
2018-05-26T08:23:21.920Z,52.6
2018-05-26T08:24:22.100Z,52.51
2018-05-26T08:25:21.844Z,52.58
2018-05-26T08:26:22.054Z,52.6
2018-05-26T08:27:22.206Z,52.55
2018-05-26T08:28:21.907Z,52.58
2018-05-26T08:29:22.025Z,52.54
2018-05-26T08:30:21.832Z,52.55
2018-05-26T08:31:22.079Z,52.54
2018-05-26T08:32:22.045Z,52.55
2018-05-26T08:33:22.054Z,52.57
2018-05-26T08:34:21.830Z,52.54
2018-05-26T08:35:21.998Z,52.54
2018-05-26T08:36:21.924Z,52.62
2018-05-26T08:37:22.314Z,52.58
2018-05-26T08:38:22.080Z,52.54
2018-05-26T08:39:21.842Z,52.75
2018-05-26T08:40:21.880Z,52.8
2018-05-26T08:41:22.008Z,52.8
2018-05-26T08:42:22.026Z,52.95
2018-05-26T08:43:22.025Z,53.01
2018-05-26T08:44:21.887Z,52.84
2018-05-26T08:45:22.665Z,52.88
2018-05-26T08:46:22.025Z,52.92
2018-05-26T08:47:22.643Z,52.9
2018-05-26T08:48:22.073Z,52.86
2018-05-26T08:49:21.925Z,52.87
2018-05-26T08:50:22.693Z,52.85
2018-05-26T08:51:24.969Z,52.91
2018-05-26T08:52:22.309Z,52.78
2018-05-26T08:53:24.465Z,52.91
2018-05-26T08:54:24.851Z,52.88
2018-05-26T08:55:22.305Z,53.13
2018-05-26T08:56:22.319Z,53.04
2018-05-26T08:57:24.902Z,52.89
2018-05-26T08:58:22.264Z,53
2018-05-26T08:59:21.915Z,52.87
2018-05-26T09:00:22.435Z,52.87
2018-05-26T09:01:21.777Z,52.97
2018-05-26T09:02:22.574Z,52.89
2018-05-26T09:03:21.978Z,52.88
2018-05-26T09:04:22.651Z,52.88
2018-05-26T09:05:22.311Z,52.92
2018-05-26T09:06:22.436Z,52.88
2018-05-26T09:07:22.045Z,52.92
2018-05-26T09:08:21.883Z,52.93
2018-05-26T09:09:21.969Z,52.84
2018-05-26T09:10:22.364Z,52.88
2018-05-26T09:11:22.332Z,52.88
2018-05-26T09:12:21.919Z,52.98
2018-05-26T09:13:22.055Z,52.86
2018-05-26T09:14:21.885Z,52.91
2018-05-26T09:15:21.907Z,52.8
2018-05-26T09:16:22.278Z,52.89
2018-05-26T09:17:21.869Z,52.85
2018-05-26T09:18:22.680Z,52.88
2018-05-26T09:19:21.951Z,52.81
2018-05-26T09:20:21.817Z,52.76
2018-05-26T09:21:24.910Z,52.79
2018-05-26T09:22:21.997Z,52.78
2018-05-26T09:23:21.906Z,52.84
2018-05-26T09:24:21.915Z,52.62
2018-05-26T09:25:22.108Z,52.69
2018-05-26T09:26:21.770Z,52.73
2018-05-26T09:27:21.932Z,52.71
2018-05-26T09:28:22.321Z,52.63
2018-05-26T09:29:21.881Z,52.65
2018-05-26T09:30:22.016Z,52.53
2018-05-26T09:31:22.319Z,52.58
2018-05-26T09:32:22.319Z,52.63
2018-05-26T09:33:21.863Z,52.6
2018-05-26T09:34:21.837Z,52.57
2018-05-26T09:35:21.812Z,52.58
2018-05-26T09:36:23.077Z,52.59
2018-05-26T09:37:21.872Z,52.57
2018-05-26T09:38:21.912Z,52.56
2018-05-26T09:39:21.969Z,52.61
2018-05-26T09:40:22.692Z,52.6
2018-05-26T09:41:21.932Z,52.56
2018-05-26T09:42:22.012Z,52.49
2018-05-26T09:43:21.896Z,52.62
2018-05-26T09:44:22.366Z,52.61
2018-05-26T09:45:22.008Z,52.57
2018-05-26T09:46:21.842Z,52.59
2018-05-26T09:47:21.873Z,52.59
2018-05-26T09:48:21.989Z,52.56
2018-05-26T09:49:21.817Z,52.56
2018-05-26T09:50:21.938Z,52.57
2018-05-26T09:51:21.777Z,52.58
2018-05-26T09:52:22.243Z,52.55
2018-05-26T09:53:21.728Z,52.64
2018-05-26T09:54:21.841Z,52.57
2018-05-26T09:55:22.096Z,52.56
2018-05-26T09:56:22.059Z,52.5
2018-05-26T09:57:22.026Z,52.55
2018-05-26T09:58:21.880Z,52.57
2018-05-26T09:59:22.000Z,52.6
2018-05-26T10:00:22.235Z,52.55
2018-05-26T10:01:21.809Z,52.55
2018-05-26T10:02:21.824Z,52.55
2018-05-26T10:03:22.011Z,52.53
2018-05-26T10:04:22.392Z,52.54
2018-05-26T10:05:21.968Z,52.53
2018-05-26T10:06:21.932Z,52.54
2018-05-26T10:07:22.004Z,52.57
2018-05-26T10:08:21.823Z,52.54
2018-05-26T10:09:22.259Z,52.5
2018-05-26T10:10:21.824Z,52.55
2018-05-26T10:11:21.858Z,52.56
2018-05-26T10:12:21.958Z,52.56
2018-05-26T10:13:22.005Z,52.49
2018-05-26T10:14:21.865Z,52.55
2018-05-26T10:15:22.079Z,52.84
2018-05-26T10:16:21.979Z,53
2018-05-26T10:17:21.916Z,53.01
2018-05-26T10:18:21.990Z,53.23
2018-05-26T10:19:21.953Z,53.18
2018-05-26T10:20:21.872Z,53.22
2018-05-26T10:21:22.027Z,53.2
2018-05-26T10:22:21.909Z,53.21
2018-05-26T10:23:21.850Z,53.28
2018-05-26T10:24:22.004Z,53.26
2018-05-26T10:25:22.161Z,53.3
2018-05-26T10:26:22.179Z,53.27
2018-05-26T10:27:21.873Z,53.27
2018-05-26T10:28:21.999Z,53.31
2018-05-26T10:29:21.830Z,53.4
2018-05-26T10:30:21.992Z,53.4
2018-05-26T10:31:21.944Z,53.4
2018-05-26T10:32:22.067Z,53.36
2018-05-26T10:33:22.026Z,53.47
2018-05-26T10:34:22.097Z,53.48
2018-05-26T10:35:21.906Z,53.44
2018-05-26T10:36:21.813Z,53.44
2018-05-26T10:37:21.823Z,53.51
2018-05-26T10:38:21.931Z,53.46
2018-05-26T10:39:22.135Z,53.45
2018-05-26T10:40:22.130Z,53.46
2018-05-26T10:41:22.046Z,53.48
2018-05-26T10:42:22.121Z,53.49
2018-05-26T10:43:22.081Z,53.51
2018-05-26T10:44:22.023Z,53.62
2018-05-26T10:45:22.519Z,53.63
2018-05-26T10:46:21.961Z,53.56
2018-05-26T10:47:21.838Z,53.69
2018-05-26T10:48:21.837Z,53.68
2018-05-26T10:49:21.918Z,53.75
2018-05-26T10:50:21.937Z,53.74
2018-05-26T10:51:21.950Z,53.73
2018-05-26T10:52:21.865Z,53.56
2018-05-26T10:53:21.983Z,53.72
2018-05-26T10:54:21.832Z,53.84
2018-05-26T10:55:21.819Z,53.69
2018-05-26T10:56:21.781Z,53.73
2018-05-26T10:57:22.097Z,53.71
2018-05-26T10:58:21.984Z,53.72
2018-05-26T10:59:21.966Z,53.82
2018-05-26T11:00:21.994Z,54.49
2018-05-26T11:01:21.898Z,54.31
2018-05-26T11:02:21.894Z,54.02
2018-05-26T11:03:21.870Z,54.05
2018-05-26T11:04:22.138Z,53.93
2018-05-26T11:05:21.705Z,54.2
2018-05-26T11:06:21.915Z,54.21
2018-05-26T11:07:21.955Z,54.03
2018-05-26T11:08:22.037Z,53.9
2018-05-26T11:09:21.971Z,53.9
2018-05-26T11:10:21.841Z,53.92
2018-05-26T11:11:21.792Z,53.93
2018-05-26T11:12:22.041Z,53.93
2018-05-26T11:13:22.003Z,53.84
2018-05-26T11:14:21.814Z,53.88
2018-05-26T11:15:22.031Z,53.88
2018-05-26T11:16:22.010Z,53.88
2018-05-26T11:17:21.989Z,53.81
2018-05-26T11:18:21.931Z,53.85
2018-05-26T11:19:22.016Z,53.82
2018-05-26T11:20:22.156Z,53.79
2018-05-26T11:21:21.951Z,53.77
2018-05-26T11:22:21.898Z,53.73
2018-05-26T11:23:21.807Z,53.74
2018-05-26T11:24:22.162Z,53.73
2018-05-26T11:25:21.847Z,53.61
2018-05-26T11:26:22.042Z,53.62
2018-05-26T11:27:21.986Z,53.59
2018-05-26T11:28:21.941Z,53.49
2018-05-26T11:29:22.015Z,53.48
2018-05-26T11:30:21.847Z,53.54
2018-05-26T11:31:21.817Z,53.54
2018-05-26T11:32:21.894Z,53.5
2018-05-26T11:33:21.950Z,53.44
2018-05-26T11:34:21.875Z,53.48
2018-05-26T11:35:22.019Z,53.51
2018-05-26T11:36:22.044Z,53.31
2018-05-26T11:37:22.090Z,53.44
2018-05-26T11:38:21.905Z,53.4
2018-05-26T11:39:21.857Z,53.42
2018-05-26T11:40:21.903Z,53.35
2018-05-26T11:41:21.932Z,53.27
2018-05-26T11:42:21.817Z,53.25
2018-05-26T11:43:22.004Z,53.26
2018-05-26T11:44:21.876Z,53.36
2018-05-26T11:45:21.885Z,53.3
2018-05-26T11:46:21.862Z,53.22
2018-05-26T11:47:22.045Z,53.26
2018-05-26T11:48:21.923Z,53.22
2018-05-26T11:49:21.854Z,53.22
2018-05-26T11:50:21.769Z,53.17
2018-05-26T11:51:22.271Z,53.17
2018-05-26T11:52:21.853Z,53.13
2018-05-26T11:53:21.916Z,53.14
2018-05-26T11:54:22.058Z,53.17
2018-05-26T11:55:21.791Z,53.17
2018-05-26T11:56:22.036Z,53.07
2018-05-26T11:57:22.010Z,53.12
2018-05-26T11:58:21.755Z,53.05
2018-05-26T11:59:21.870Z,53.09
2018-05-26T12:00:21.920Z,53.06
2018-05-26T12:01:21.885Z,53.05
2018-05-26T12:02:21.994Z,53.04
2018-05-26T12:03:21.937Z,53.03
2018-05-26T12:04:22.011Z,53.03
2018-05-26T12:05:21.705Z,53.04
2018-05-26T12:06:21.875Z,53.04
2018-05-26T12:07:21.898Z,53.03
2018-05-26T12:08:21.812Z,53.04
2018-05-26T12:09:21.831Z,53.01
2018-05-26T12:10:21.978Z,53.04
2018-05-26T12:11:22.064Z,53.03
2018-05-26T12:12:22.246Z,53.03
2018-05-26T12:13:21.910Z,52.97
2018-05-26T12:14:21.928Z,53.09
2018-05-26T12:15:21.833Z,53.01
2018-05-26T12:16:22.075Z,53.01
2018-05-26T12:17:21.922Z,53.01
2018-05-26T12:18:21.929Z,53.01
2018-05-26T12:19:21.781Z,53
2018-05-26T12:20:21.954Z,52.92
2018-05-26T12:21:21.921Z,52.95
2018-05-26T12:22:21.892Z,52.98
2018-05-26T12:23:21.908Z,52.99
2018-05-26T12:24:21.959Z,52.97
2018-05-26T12:25:22.080Z,53.01
2018-05-26T12:26:21.764Z,52.97
2018-05-26T12:27:21.898Z,52.96
2018-05-26T12:28:21.989Z,52.94
2018-05-26T12:29:21.852Z,52.91
2018-05-26T12:30:21.853Z,52.93
2018-05-26T12:31:21.998Z,52.91
2018-05-26T12:32:21.867Z,52.94
2018-05-26T12:33:21.811Z,52.9
2018-05-26T12:34:21.882Z,52.92
2018-05-26T12:35:21.833Z,52.93
2018-05-26T12:36:21.929Z,52.85
2018-05-26T12:37:21.875Z,52.85
2018-05-26T12:38:22.081Z,52.9
2018-05-26T12:39:21.853Z,52.91
2018-05-26T12:40:21.970Z,52.85
2018-05-26T12:41:22.119Z,52.83
2018-05-26T12:42:21.829Z,52.88
2018-05-26T12:43:22.065Z,52.87
2018-05-26T12:44:21.778Z,52.94
2018-05-26T12:45:22.039Z,52.89
2018-05-26T12:46:21.690Z,52.84
2018-05-26T12:47:21.912Z,52.89
2018-05-26T12:48:22.037Z,52.83
2018-05-26T12:49:21.839Z,52.81
2018-05-26T12:50:22.066Z,52.83
2018-05-26T12:51:21.758Z,52.88
2018-05-26T12:52:21.996Z,52.83
2018-05-26T12:53:21.875Z,52.91
2018-05-26T12:54:22.300Z,52.77
2018-05-26T12:55:21.923Z,52.86
2018-05-26T12:56:22.071Z,52.88